02:02 Bike Tschirgantrunde klassisch
Ort Moetz Datum 28.06.2010 16:47:37
Kategorie MTB
Distanz 48,15 Kilometer Steigung 477,7 Meter Gefälle -525,3 Meter
Gesamt Zeit 02:02:35 Aktiv 02:02:27 Pause 00:00:08
Durchs. Tempo 23,6 km/h Tempo max. 39,8 km/h Tempo min. 7,3 km/h
Kalorien 0 Durchs. HF 140 BPM HF max. 169 BPM
Wetter 28 °C Clear
Ausrüstung Schwalbe - Racing Ralph hinten
Schwalbe - Racing Ralph vorne
Shimano - HG-93 XT
Specialized - BG S-Works MTB
Specialized - Stumpjumper Comp
SwissStop - Disc17 Avid Juicy
Notiz Tschirgantrunde "klassisch" ... im Gurgltal starker Gegenwind, sonst super ... schon etwas müde von den 2 Tagen vorher ... garmin connect
Splits
Distanz (km) Gesamt Zeit Split Zeit Split Tempo Split Tempo Höhenprofil (m)
1,00 00:02:10 00:02:10 00:02:10 27,7 -3,36
2,00 00:04:09 00:01:59 00:01:59 30,3 3,36
3,00 00:06:16 00:02:07 00:02:07 28,3 8,65
4,00 00:08:10 00:01:54 00:01:54 31,6 -1,92
5,00 00:10:04 00:01:54 00:01:54 31,6 2,40
6,00 00:12:01 00:01:57 00:01:57 30,8 3,36
7,00 00:14:02 00:02:01 00:02:01 29,8 9,13
8,00 00:17:21 00:03:19 00:03:19 18,1 41,82
9,00 00:19:29 00:02:08 00:02:08 28,1 6,73
10,00 00:21:15 00:01:46 00:01:46 34,0 -23,07
11,00 00:23:00 00:01:45 00:01:45 34,3 -12,98
12,00 00:25:35 00:02:35 00:02:35 23,2 24,51
13,00 00:27:58 00:02:23 00:02:23 25,2 -7,69
14,00 00:30:59 00:03:01 00:03:01 19,9 22,11
15,00 00:33:05 00:02:06 00:02:06 28,6 -11,54
16,00 00:35:24 00:02:19 00:02:19 25,9 1,92
17,00 00:37:44 00:02:20 00:02:20 25,7 0,00
18,00 00:39:49 00:02:05 00:02:05 28,8 5,29
19,00 00:42:34 00:02:45 00:02:45 21,8 -0,96
20,00 00:44:41 00:02:07 00:02:07 28,3 0,96
21,00 00:46:45 00:02:04 00:02:04 29,0 1,92
22,00 00:49:06 00:02:21 00:02:21 25,5 8,17
23,00 00:51:47 00:02:41 00:02:41 22,4 22,59
24,00 00:54:03 00:02:16 00:02:16 26,5 4,81
25,00 00:56:51 00:02:48 00:02:48 21,4 12,50
26,00 00:59:45 00:02:54 00:02:54 20,7 14,42
27,00 01:02:34 00:02:49 00:02:49 21,3 20,67
28,00 01:05:02 00:02:28 00:02:28 24,3 4,81
29,00 01:08:03 00:03:01 00:03:01 19,9 16,82
30,00 01:10:24 00:02:21 00:02:21 25,5 -0,48
31,00 01:12:55 00:02:31 00:02:31 23,8 13,46
32,00 01:15:09 00:02:14 00:02:14 26,9 -19,71
33,00 01:17:31 00:02:22 00:02:22 25,4 0,96
34,00 01:19:35 00:02:04 00:02:04 29,0 0,48
35,00 01:22:43 00:03:08 00:03:08 19,1 27,88
36,00 01:25:41 00:02:58 00:02:58 20,2 24,03
37,00 01:29:22 00:03:41 00:03:41 16,3 44,22
38,00 01:34:01 00:04:39 00:04:39 12,9 64,89
39,00 01:40:10 00:06:09 00:06:09 9,8 90,84
40,00 01:44:45 00:04:35 00:04:35 13,1 47,59
41,00 01:47:51 00:03:06 00:03:06 19,4 -11,54
42,00 01:49:43 00:01:52 00:01:52 32,1 -34,13
43,00 01:52:13 00:02:30 00:02:30 24,0 -40,86
44,00 01:53:56 00:01:43 00:01:43 35,0 -26,92
45,00 01:55:59 00:02:03 00:02:03 29,3 -25,47
46,00 01:58:12 00:02:13 00:02:13 27,1 -87,48
47,00 02:00:04 00:01:52 00:01:52 32,1 -92,77
48,00 02:02:02 00:01:58 00:01:58 30,5 -107,19